sensor_id;sensor_type;location;lat;lon;timestamp;temperature;humidity
18218;DHT22;9234;49.344;11.120;2023-08-30T00:01:08;13.00;99.90
18218;DHT22;9234;49.344;11.120;2023-08-30T00:03:37;13.00;99.90
18218;DHT22;9234;49.344;11.120;2023-08-30T00:06:07;13.00;99.90
18218;DHT22;9234;49.344;11.120;2023-08-30T00:08:35;13.00;99.90
18218;DHT22;9234;49.344;11.120;2023-08-30T00:11:04;13.00;99.90
18218;DHT22;9234;49.344;11.120;2023-08-30T00:13:32;12.90;99.90
18218;DHT22;9234;49.344;11.120;2023-08-30T00:16:01;12.90;99.90
18218;DHT22;9234;49.344;11.120;2023-08-30T00:18:30;12.90;99.90
18218;DHT22;9234;49.344;11.120;2023-08-30T00:21:00;12.90;99.90
18218;DHT22;9234;49.344;11.120;2023-08-30T00:23:28;12.90;99.90
18218;DHT22;9234;49.344;11.120;2023-08-30T00:25:56;12.90;99.90
18218;DHT22;9234;49.344;11.120;2023-08-30T00:28:24;12.80;99.90
18218;DHT22;9234;49.344;11.120;2023-08-30T00:30:54;12.80;99.90
18218;DHT22;9234;49.344;11.120;2023-08-30T00:33:23;12.80;99.90
18218;DHT22;9234;49.344;11.120;2023-08-30T00:35:59;12.80;99.90
18218;DHT22;9234;49.344;11.120;2023-08-30T00:38:28;12.70;99.90
18218;DHT22;9234;49.344;11.120;2023-08-30T00:40:57;12.70;99.90
18218;DHT22;9234;49.344;11.120;2023-08-30T00:43:25;12.70;99.90
18218;DHT22;9234;49.344;11.120;2023-08-30T00:45:53;12.60;99.90
18218;DHT22;9234;49.344;11.120;2023-08-30T00:48:22;12.60;99.90
18218;DHT22;9234;49.344;11.120;2023-08-30T00:50:50;12.60;99.90
18218;DHT22;9234;49.344;11.120;2023-08-30T00:53:20;12.50;99.90
18218;DHT22;9234;49.344;11.120;2023-08-30T00:55:49;12.50;99.90
18218;DHT22;9234;49.344;11.120;2023-08-30T00:58:18;12.50;99.90
18218;DHT22;9234;49.344;11.120;2023-08-30T01:00:46;12.40;99.90
18218;DHT22;9234;49.344;11.120;2023-08-30T01:03:15;12.40;99.90
18218;DHT22;9234;49.344;11.120;2023-08-30T01:05:44;12.40;99.90
18218;DHT22;9234;49.344;11.120;2023-08-30T01:08:12;12.40;99.90
18218;DHT22;9234;49.344;11.120;2023-08-30T01:10:52;12.40;99.90
18218;DHT22;9234;49.344;11.120;2023-08-30T01:13:26;12.30;99.90
18218;DHT22;9234;49.344;11.120;2023-08-30T01:15:58;12.30;99.90
18218;DHT22;9234;49.344;11.120;2023-08-30T01:18:31;12.30;99.90
18218;DHT22;9234;49.344;11.120;2023-08-30T01:21:02;12.30;99.90
18218;DHT22;9234;49.344;11.120;2023-08-30T01:23:40;12.30;99.90
18218;DHT22;9234;49.344;11.120;2023-08-30T01:26:36;12.30;99.90
18218;DHT22;9234;49.344;11.120;2023-08-30T01:29:12;12.30;99.90
18218;DHT22;9234;49.344;11.120;2023-08-30T01:31:42;12.30;99.90
18218;DHT22;9234;49.344;11.120;2023-08-30T01:34:13;12.30;99.90
18218;DHT22;9234;49.344;11.120;2023-08-30T01:36:43;12.30;99.90
18218;DHT22;9234;49.344;11.120;2023-08-30T01:39:13;12.30;99.90
18218;DHT22;9234;49.344;11.120;2023-08-30T01:41:42;12.30;99.90
18218;DHT22;9234;49.344;11.120;2023-08-30T01:44:14;12.30;99.90
18218;DHT22;9234;49.344;11.120;2023-08-30T01:46:45;12.30;99.90
18218;DHT22;9234;49.344;11.120;2023-08-30T01:49:15;12.30;99.90
18218;DHT22;9234;49.344;11.120;2023-08-30T01:51:44;12.30;99.90
18218;DHT22;9234;49.344;11.120;2023-08-30T01:54:15;12.30;99.90
18218;DHT22;9234;49.344;11.120;2023-08-30T01:56:47;12.40;99.90
18218;DHT22;9234;49.344;11.120;2023-08-30T01:59:17;12.40;99.90
18218;DHT22;9234;49.344;11.120;2023-08-30T02:01:45;12.40;99.90
18218;DHT22;9234;49.344;11.120;2023-08-30T02:04:13;12.40;99.90
18218;DHT22;9234;49.344;11.120;2023-08-30T02:06:45;12.40;99.90
18218;DHT22;9234;49.344;11.120;2023-08-30T02:09:22;12.40;99.90
18218;DHT22;9234;49.344;11.120;2023-08-30T02:11:55;12.40;99.90
18218;DHT22;9234;49.344;11.120;2023-08-30T02:14:28;12.40;99.90
18218;DHT22;9234;49.344;11.120;2023-08-30T02:16:58;12.40;99.90
18218;DHT22;9234;49.344;11.120;2023-08-30T02:19:26;12.40;99.90
18218;DHT22;9234;49.344;11.120;2023-08-30T02:21:55;12.40;99.90
18218;DHT22;9234;49.344;11.120;2023-08-30T02:24:23;12.40;99.90
18218;DHT22;9234;49.344;11.120;2023-08-30T02:26:52;12.50;99.90
18218;DHT22;9234;49.344;11.120;2023-08-30T02:29:20;12.50;99.90
18218;DHT22;9234;49.344;11.120;2023-08-30T02:31:49;12.50;99.90
18218;DHT22;9234;49.344;11.120;2023-08-30T02:34:21;12.50;99.90
18218;DHT22;9234;49.344;11.120;2023-08-30T02:36:49;12.50;99.90
18218;DHT22;9234;49.344;11.120;2023-08-30T02:39:17;12.50;99.90
18218;DHT22;9234;49.344;11.120;2023-08-30T02:41:46;12.60;99.90
18218;DHT22;9234;49.344;11.120;2023-08-30T02:44:14;12.50;99.90
18218;DHT22;9234;49.344;11.120;2023-08-30T02:46:42;12.50;99.90
18218;DHT22;9234;49.344;11.120;2023-08-30T02:49:12;12.60;99.90
18218;DHT22;9234;49.344;11.120;2023-08-30T02:51:40;12.50;99.90
18218;DHT22;9234;49.344;11.120;2023-08-30T02:54:08;12.60;99.90
18218;DHT22;9234;49.344;11.120;2023-08-30T02:56:41;12.60;99.90
18218;DHT22;9234;49.344;11.120;2023-08-30T02:59:10;12.50;99.90
18218;DHT22;9234;49.344;11.120;2023-08-30T03:01:38;12.50;99.90
18218;DHT22;9234;49.344;11.120;2023-08-30T03:04:08;12.50;99.90
18218;DHT22;9234;49.344;11.120;2023-08-30T03:06:37;12.50;99.90
18218;DHT22;9234;49.344;11.120;2023-08-30T03:09:06;12.50;99.90
18218;DHT22;9234;49.344;11.120;2023-08-30T03:11:36;12.50;99.90
18218;DHT22;9234;49.344;11.120;2023-08-30T03:14:04;12.60;99.90
18218;DHT22;9234;49.344;11.120;2023-08-30T03:16:33;12.60;99.90
18218;DHT22;9234;49.344;11.120;2023-08-30T03:19:02;12.50;99.90
18218;DHT22;9234;49.344;11.120;2023-08-30T03:21:30;12.60;99.90
18218;DHT22;9234;49.344;11.120;2023-08-30T03:24:00;12.50;99.90
18218;DHT22;9234;49.344;11.120;2023-08-30T03:26:28;12.50;99.90
18218;DHT22;9234;49.344;11.120;2023-08-30T03:28:57;12.50;99.90
18218;DHT22;9234;49.344;11.120;2023-08-30T03:31:26;12.50;99.90
18218;DHT22;9234;49.344;11.120;2023-08-30T03:33:54;12.50;99.90
18218;DHT22;9234;49.344;11.120;2023-08-30T03:36:22;12.60;99.90
18218;DHT22;9234;49.344;11.120;2023-08-30T03:38:52;12.50;99.90
18218;DHT22;9234;49.344;11.120;2023-08-30T03:41:22;12.50;99.90
18218;DHT22;9234;49.344;11.120;2023-08-30T03:43:50;12.50;99.90
18218;DHT22;9234;49.344;11.120;2023-08-30T03:46:18;12.50;99.90
18218;DHT22;9234;49.344;11.120;2023-08-30T03:48:47;12.50;99.90
18218;DHT22;9234;49.344;11.120;2023-08-30T03:51:16;12.50;99.90
18218;DHT22;9234;49.344;11.120;2023-08-30T03:53:45;12.50;99.90
18218;DHT22;9234;49.344;11.120;2023-08-30T03:56:13;12.50;99.90
18218;DHT22;9234;49.344;11.120;2023-08-30T03:58:43;12.50;99.90
18218;DHT22;9234;49.344;11.120;2023-08-30T04:01:12;12.50;99.90
18218;DHT22;9234;49.344;11.120;2023-08-30T04:03:41;12.40;99.90
18218;DHT22;9234;49.344;11.120;2023-08-30T04:06:09;12.40;99.90
18218;DHT22;9234;49.344;11.120;2023-08-30T04:08:37;12.40;99.90
18218;DHT22;9234;49.344;11.120;2023-08-30T04:11:06;12.40;99.90
18218;DHT22;9234;49.344;11.120;2023-08-30T04:13:34;12.40;99.90
18218;DHT22;9234;49.344;11.120;2023-08-30T04:16:04;12.40;99.90
18218;DHT22;9234;49.344;11.120;2023-08-30T04:18:33;12.40;99.90
18218;DHT22;9234;49.344;11.120;2023-08-30T04:21:01;12.40;99.90
18218;DHT22;9234;49.344;11.120;2023-08-30T04:23:29;12.40;99.90
18218;DHT22;9234;49.344;11.120;2023-08-30T04:25:58;12.40;99.90
18218;DHT22;9234;49.344;11.120;2023-08-30T04:28:26;12.40;99.90
18218;DHT22;9234;49.344;11.120;2023-08-30T04:30:54;12.40;99.90
18218;DHT22;9234;49.344;11.120;2023-08-30T04:33:25;12.40;99.90
18218;DHT22;9234;49.344;11.120;2023-08-30T04:35:54;12.40;99.90
18218;DHT22;9234;49.344;11.120;2023-08-30T04:38:23;12.40;99.90
18218;DHT22;9234;49.344;11.120;2023-08-30T04:40:57;12.40;99.90
18218;DHT22;9234;49.344;11.120;2023-08-30T04:43:27;12.30;99.90
18218;DHT22;9234;49.344;11.120;2023-08-30T04:45:56;12.30;99.90
18218;DHT22;9234;49.344;11.120;2023-08-30T04:48:26;12.30;99.90
18218;DHT22;9234;49.344;11.120;2023-08-30T04:50:59;12.30;99.90
18218;DHT22;9234;49.344;11.120;2023-08-30T04:53:29;12.30;99.90
18218;DHT22;9234;49.344;11.120;2023-08-30T04:55:59;12.30;99.90
18218;DHT22;9234;49.344;11.120;2023-08-30T04:58:28;12.40;99.90
18218;DHT22;9234;49.344;11.120;2023-08-30T05:00:58;12.40;99.90
18218;DHT22;9234;49.344;11.120;2023-08-30T05:03:28;12.40;99.90
18218;DHT22;9234;49.344;11.120;2023-08-30T05:05:59;12.30;99.90
18218;DHT22;9234;49.344;11.120;2023-08-30T05:08:27;12.30;99.90
18218;DHT22;9234;49.344;11.120;2023-08-30T05:10:56;12.30;99.90
18218;DHT22;9234;49.344;11.120;2023-08-30T05:13:24;12.30;99.90
18218;DHT22;9234;49.344;11.120;2023-08-30T05:15:53;12.30;99.90
18218;DHT22;9234;49.344;11.120;2023-08-30T05:18:21;12.40;99.90
18218;DHT22;9234;49.344;11.120;2023-08-30T05:20:50;12.40;99.90
18218;DHT22;9234;49.344;11.120;2023-08-30T05:23:19;12.40;99.90
18218;DHT22;9234;49.344;11.120;2023-08-30T05:25:47;12.40;99.90
18218;DHT22;9234;49.344;11.120;2023-08-30T05:28:16;12.50;99.90
18218;DHT22;9234;49.344;11.120;2023-08-30T05:30:44;12.50;99.90
18218;DHT22;9234;49.344;11.120;2023-08-30T05:33:27;12.50;99.90
18218;DHT22;9234;49.344;11.120;2023-08-30T05:36:05;12.50;99.90
18218;DHT22;9234;49.344;11.120;2023-08-30T05:39:00;12.60;99.90
18218;DHT22;9234;49.344;11.120;2023-08-30T05:41:34;12.70;99.90
18218;DHT22;9234;49.344;11.120;2023-08-30T05:44:04;12.70;99.90
18218;DHT22;9234;49.344;11.120;2023-08-30T05:46:33;12.70;99.90
18218;DHT22;9234;49.344;11.120;2023-08-30T05:49:01;12.80;99.90
18218;DHT22;9234;49.344;11.120;2023-08-30T05:51:31;12.80;99.90
18218;DHT22;9234;49.344;11.120;2023-08-30T05:54:00;12.90;99.90
18218;DHT22;9234;49.344;11.120;2023-08-30T05:56:29;13.00;99.90
18218;DHT22;9234;49.344;11.120;2023-08-30T05:58:57;13.00;99.90
18218;DHT22;9234;49.344;11.120;2023-08-30T06:01:25;13.10;99.90
18218;DHT22;9234;49.344;11.120;2023-08-30T06:03:54;13.10;99.90
18218;DHT22;9234;49.344;11.120;2023-08-30T06:06:22;13.20;99.90
18218;DHT22;9234;49.344;11.120;2023-08-30T06:08:52;13.30;99.90
18218;DHT22;9234;49.344;11.120;2023-08-30T06:11:20;13.40;99.90
18218;DHT22;9234;49.344;11.120;2023-08-30T06:13:48;13.40;99.90
18218;DHT22;9234;49.344;11.120;2023-08-30T06:16:17;13.50;99.90
18218;DHT22;9234;49.344;11.120;2023-08-30T06:18:45;13.60;99.90
18218;DHT22;9234;49.344;11.120;2023-08-30T06:21:13;13.70;99.90
18218;DHT22;9234;49.344;11.120;2023-08-30T06:23:42;13.70;99.90
18218;DHT22;9234;49.344;11.120;2023-08-30T06:26:11;13.80;99.90
18218;DHT22;9234;49.344;11.120;2023-08-30T06:28:40;13.90;99.90
18218;DHT22;9234;49.344;11.120;2023-08-30T06:31:24;14.00;99.90
18218;DHT22;9234;49.344;11.120;2023-08-30T06:33:55;14.10;99.90
18218;DHT22;9234;49.344;11.120;2023-08-30T06:36:23;14.10;99.90
18218;DHT22;9234;49.344;11.120;2023-08-30T06:38:52;14.20;99.90
18218;DHT22;9234;49.344;11.120;2023-08-30T06:41:21;14.30;99.90
18218;DHT22;9234;49.344;11.120;2023-08-30T06:43:50;14.40;99.90
18218;DHT22;9234;49.344;11.120;2023-08-30T06:46:18;14.40;99.90
18218;DHT22;9234;49.344;11.120;2023-08-30T06:48:47;14.50;99.90
18218;DHT22;9234;49.344;11.120;2023-08-30T06:51:15;14.60;99.90
18218;DHT22;9234;49.344;11.120;2023-08-30T06:53:43;14.70;99.90
18218;DHT22;9234;49.344;11.120;2023-08-30T06:56:13;14.80;99.90
18218;DHT22;9234;49.344;11.120;2023-08-30T06:58:42;14.90;99.90
18218;DHT22;9234;49.344;11.120;2023-08-30T07:01:11;15.00;99.90
18218;DHT22;9234;49.344;11.120;2023-08-30T07:03:39;15.10;99.90
18218;DHT22;9234;49.344;11.120;2023-08-30T07:06:07;15.20;99.90
18218;DHT22;9234;49.344;11.120;2023-08-30T07:08:36;15.30;99.90
18218;DHT22;9234;49.344;11.120;2023-08-30T07:11:05;15.40;99.90
18218;DHT22;9234;49.344;11.120;2023-08-30T07:13:47;15.50;99.90
18218;DHT22;9234;49.344;11.120;2023-08-30T07:16:17;15.70;99.90
18218;DHT22;9234;49.344;11.120;2023-08-30T07:18:46;15.80;99.90
18218;DHT22;9234;49.344;11.120;2023-08-30T07:21:14;15.90;99.90
18218;DHT22;9234;49.344;11.120;2023-08-30T07:23:42;16.00;99.90
18218;DHT22;9234;49.344;11.120;2023-08-30T07:26:11;16.00;99.90
18218;DHT22;9234;49.344;11.120;2023-08-30T07:28:39;16.10;99.90
18218;DHT22;9234;49.344;11.120;2023-08-30T07:31:09;16.20;99.90
18218;DHT22;9234;49.344;11.120;2023-08-30T07:33:40;16.30;99.90
18218;DHT22;9234;49.344;11.120;2023-08-30T07:36:09;16.40;99.90
18218;DHT22;9234;49.344;11.120;2023-08-30T07:38:38;16.50;99.90
18218;DHT22;9234;49.344;11.120;2023-08-30T07:41:06;16.60;99.90
18218;DHT22;9234;49.344;11.120;2023-08-30T07:43:37;16.60;99.90
18218;DHT22;9234;49.344;11.120;2023-08-30T07:46:05;16.70;99.90
18218;DHT22;9234;49.344;11.120;2023-08-30T07:48:35;16.80;99.90
18218;DHT22;9234;49.344;11.120;2023-08-30T07:51:03;16.90;99.90
18218;DHT22;9234;49.344;11.120;2023-08-30T07:53:32;16.90;99.90
18218;DHT22;9234;49.344;11.120;2023-08-30T07:56:00;17.00;99.90
18218;DHT22;9234;49.344;11.120;2023-08-30T07:58:29;17.00;99.90
18218;DHT22;9234;49.344;11.120;2023-08-30T08:00:57;17.00;99.90
18218;DHT22;9234;49.344;11.120;2023-08-30T08:03:26;17.10;99.90
18218;DHT22;9234;49.344;11.120;2023-08-30T08:05:58;17.20;99.90
18218;DHT22;9234;49.344;11.120;2023-08-30T08:08:27;17.30;99.90
18218;DHT22;9234;49.344;11.120;2023-08-30T08:10:55;17.30;99.90
18218;DHT22;9234;49.344;11.120;2023-08-30T08:13:23;17.30;99.90
18218;DHT22;9234;49.344;11.120;2023-08-30T08:15:52;17.40;99.90
18218;DHT22;9234;49.344;11.120;2023-08-30T08:18:23;17.50;99.90
18218;DHT22;9234;49.344;11.120;2023-08-30T08:20:52;17.70;99.90
18218;DHT22;9234;49.344;11.120;2023-08-30T08:23:21;17.90;99.90
18218;DHT22;9234;49.344;11.120;2023-08-30T08:25:57;18.10;99.90
18218;DHT22;9234;49.344;11.120;2023-08-30T08:28:26;18.30;99.90
18218;DHT22;9234;49.344;11.120;2023-08-30T08:30:54;18.40;99.90
18218;DHT22;9234;49.344;11.120;2023-08-30T08:33:22;18.50;99.90
18218;DHT22;9234;49.344;11.120;2023-08-30T08:35:51;18.60;99.90
18218;DHT22;9234;49.344;11.120;2023-08-30T08:38:19;18.80;99.90
18218;DHT22;9234;49.344;11.120;2023-08-30T08:40:51;19.00;99.90
18218;DHT22;9234;49.344;11.120;2023-08-30T08:43:29;19.20;99.90
18218;DHT22;9234;49.344;11.120;2023-08-30T08:46:01;19.30;99.90
18218;DHT22;9234;49.344;11.120;2023-08-30T08:48:39;19.30;99.90
18218;DHT22;9234;49.344;11.120;2023-08-30T08:51:11;19.40;99.90
18218;DHT22;9234;49.344;11.120;2023-08-30T08:53:41;19.40;99.90
18218;DHT22;9234;49.344;11.120;2023-08-30T08:56:13;19.40;99.90
18218;DHT22;9234;49.344;11.120;2023-08-30T08:58:42;19.50;99.90
18218;DHT22;9234;49.344;11.120;2023-08-30T09:01:11;19.60;99.90
18218;DHT22;9234;49.344;11.120;2023-08-30T09:03:59;19.70;99.90
18218;DHT22;9234;49.344;11.120;2023-08-30T09:06:29;19.80;99.90
18218;DHT22;9234;49.344;11.120;2023-08-30T09:08:57;19.90;99.90
18218;DHT22;9234;49.344;11.120;2023-08-30T09:11:27;20.00;99.90
18218;DHT22;9234;49.344;11.120;2023-08-30T09:14:15;20.10;99.90
18218;DHT22;9234;49.344;11.120;2023-08-30T09:16:54;20.30;99.90
18218;DHT22;9234;49.344;11.120;2023-08-30T09:19:23;20.40;99.90
18218;DHT22;9234;49.344;11.120;2023-08-30T09:21:52;20.40;99.90
18218;DHT22;9234;49.344;11.120;2023-08-30T09:24:21;20.60;99.90
18218;DHT22;9234;49.344;11.120;2023-08-30T09:26:52;20.70;99.90
18218;DHT22;9234;49.344;11.120;2023-08-30T09:29:22;20.90;99.90
18218;DHT22;9234;49.344;11.120;2023-08-30T09:31:52;21.00;99.90
18218;DHT22;9234;49.344;11.120;2023-08-30T09:34:22;21.10;99.90
18218;DHT22;9234;49.344;11.120;2023-08-30T09:36:53;21.10;99.90
18218;DHT22;9234;49.344;11.120;2023-08-30T09:39:22;21.10;99.90
18218;DHT22;9234;49.344;11.120;2023-08-30T09:41:54;21.20;99.90
18218;DHT22;9234;49.344;11.120;2023-08-30T09:44:23;21.20;99.90
18218;DHT22;9234;49.344;11.120;2023-08-30T09:46:53;21.20;99.90
18218;DHT22;9234;49.344;11.120;2023-08-30T09:49:24;21.10;99.90
18218;DHT22;9234;49.344;11.120;2023-08-30T09:51:54;21.10;99.90
18218;DHT22;9234;49.344;11.120;2023-08-30T09:54:23;21.00;99.90
18218;DHT22;9234;49.344;11.120;2023-08-30T09:56:56;20.90;99.90
18218;DHT22;9234;49.344;11.120;2023-08-30T09:59:28;21.00;99.90
18218;DHT22;9234;49.344;11.120;2023-08-30T10:01:57;21.10;99.90
18218;DHT22;9234;49.344;11.120;2023-08-30T10:04:27;21.10;99.90
18218;DHT22;9234;49.344;11.120;2023-08-30T10:06:58;21.20;99.90
18218;DHT22;9234;49.344;11.120;2023-08-30T10:09:28;21.30;99.90
18218;DHT22;9234;49.344;11.120;2023-08-30T10:12:00;21.30;99.90
18218;DHT22;9234;49.344;11.120;2023-08-30T10:14:29;21.30;99.90
18218;DHT22;9234;49.344;11.120;2023-08-30T10:17:01;21.40;99.90
18218;DHT22;9234;49.344;11.120;2023-08-30T10:19:31;21.50;99.90
18218;DHT22;9234;49.344;11.120;2023-08-30T10:22:01;21.50;99.90
18218;DHT22;9234;49.344;11.120;2023-08-30T10:24:35;21.40;99.90
18218;DHT22;9234;49.344;11.120;2023-08-30T10:27:30;21.50;99.90
18218;DHT22;9234;49.344;11.120;2023-08-30T10:30:01;21.50;99.90
18218;DHT22;9234;49.344;11.120;2023-08-30T10:32:31;21.60;99.90
18218;DHT22;9234;49.344;11.120;2023-08-30T10:35:01;21.50;99.90
18218;DHT22;9234;49.344;11.120;2023-08-30T10:37:30;21.50;99.90
18218;DHT22;9234;49.344;11.120;2023-08-30T10:40:04;21.60;99.90
18218;DHT22;9234;49.344;11.120;2023-08-30T10:42:35;21.60;99.80
18218;DHT22;9234;49.344;11.120;2023-08-30T10:45:05;21.50;99.40
18218;DHT22;9234;49.344;11.120;2023-08-30T10:47:40;21.60;99.50
18218;DHT22;9234;49.344;11.120;2023-08-30T10:50:10;21.80;99.90
18218;DHT22;9234;49.344;11.120;2023-08-30T10:52:40;22.10;99.90
18218;DHT22;9234;49.344;11.120;2023-08-30T10:55:09;22.40;99.90
18218;DHT22;9234;49.344;11.120;2023-08-30T10:57:43;22.60;98.70
18218;DHT22;9234;49.344;11.120;2023-08-30T11:00:18;22.60;98.50
18218;DHT22;9234;49.344;11.120;2023-08-30T11:02:50;22.70;98.40
18218;DHT22;9234;49.344;11.120;2023-08-30T11:05:21;22.60;98.00
18218;DHT22;9234;49.344;11.120;2023-08-30T11:07:51;22.60;98.10
18218;DHT22;9234;49.344;11.120;2023-08-30T11:10:21;22.60;95.80
18218;DHT22;9234;49.344;11.120;2023-08-30T11:12:50;22.60;97.30
18218;DHT22;9234;49.344;11.120;2023-08-30T11:15:19;22.60;97.90
18218;DHT22;9234;49.344;11.120;2023-08-30T11:17:47;22.70;97.40
18218;DHT22;9234;49.344;11.120;2023-08-30T11:20:16;22.90;97.00
18218;DHT22;9234;49.344;11.120;2023-08-30T11:22:47;23.00;95.80
18218;DHT22;9234;49.344;11.120;2023-08-30T11:25:16;23.00;95.90
18218;DHT22;9234;49.344;11.120;2023-08-30T11:27:45;22.90;96.00
18218;DHT22;9234;49.344;11.120;2023-08-30T11:30:15;22.80;96.00
18218;DHT22;9234;49.344;11.120;2023-08-30T11:32:46;22.70;95.40
18218;DHT22;9234;49.344;11.120;2023-08-30T11:35:16;22.50;95.70
18218;DHT22;9234;49.344;11.120;2023-08-30T11:37:44;22.60;96.70
18218;DHT22;9234;49.344;11.120;2023-08-30T11:40:13;22.90;96.50
18218;DHT22;9234;49.344;11.120;2023-08-30T11:42:43;23.20;95.20
18218;DHT22;9234;49.344;11.120;2023-08-30T11:45:15;23.70;95.50
18218;DHT22;9234;49.344;11.120;2023-08-30T11:47:45;24.00;94.70
18218;DHT22;9234;49.344;11.120;2023-08-30T11:50:13;24.20;93.40
18218;DHT22;9234;49.344;11.120;2023-08-30T11:52:42;24.30;92.50
18218;DHT22;9234;49.344;11.120;2023-08-30T11:55:11;24.40;92.40
18218;DHT22;9234;49.344;11.120;2023-08-30T11:57:43;24.40;92.00
18218;DHT22;9234;49.344;11.120;2023-08-30T12:00:13;24.30;91.80
18218;DHT22;9234;49.344;11.120;2023-08-30T12:02:43;24.00;91.40
18218;DHT22;9234;49.344;11.120;2023-08-30T12:05:12;23.70;91.20
18218;DHT22;9234;49.344;11.120;2023-08-30T12:07:40;23.40;91.30
18218;DHT22;9234;49.344;11.120;2023-08-30T12:10:10;23.10;91.70
18218;DHT22;9234;49.344;11.120;2023-08-30T12:12:44;22.80;92.20
18218;DHT22;9234;49.344;11.120;2023-08-30T12:15:14;22.50;92.80
18218;DHT22;9234;49.344;11.120;2023-08-30T12:17:45;22.30;93.40
18218;DHT22;9234;49.344;11.120;2023-08-30T12:20:16;22.00;93.70
18218;DHT22;9234;49.344;11.120;2023-08-30T12:22:47;21.80;94.20
18218;DHT22;9234;49.344;11.120;2023-08-30T12:25:19;21.50;94.80
18218;DHT22;9234;49.344;11.120;2023-08-30T12:27:47;21.30;95.90
18218;DHT22;9234;49.344;11.120;2023-08-30T12:30:17;21.20;97.20
18218;DHT22;9234;49.344;11.120;2023-08-30T12:32:47;21.00;98.10
18218;DHT22;9234;49.344;11.120;2023-08-30T12:35:15;20.80;99.20
18218;DHT22;9234;49.344;11.120;2023-08-30T12:37:44;20.80;99.90
18218;DHT22;9234;49.344;11.120;2023-08-30T12:40:12;20.70;99.90
18218;DHT22;9234;49.344;11.120;2023-08-30T12:42:40;20.70;99.90
18218;DHT22;9234;49.344;11.120;2023-08-30T12:45:09;20.80;99.90
18218;DHT22;9234;49.344;11.120;2023-08-30T12:47:38;20.90;99.90
18218;DHT22;9234;49.344;11.120;2023-08-30T12:50:08;20.90;99.90
18218;DHT22;9234;49.344;11.120;2023-08-30T12:52:37;21.00;99.90
18218;DHT22;9234;49.344;11.120;2023-08-30T12:55:06;21.10;99.90
18218;DHT22;9234;49.344;11.120;2023-08-30T12:57:36;21.20;99.90
18218;DHT22;9234;49.344;11.120;2023-08-30T13:00:06;21.20;99.90
18218;DHT22;9234;49.344;11.120;2023-08-30T13:02:35;21.20;99.90
18218;DHT22;9234;49.344;11.120;2023-08-30T13:05:03;21.20;99.90
18218;DHT22;9234;49.344;11.120;2023-08-30T13:07:34;21.20;99.90
18218;DHT22;9234;49.344;11.120;2023-08-30T13:10:02;21.10;99.90
18218;DHT22;9234;49.344;11.120;2023-08-30T13:12:30;21.00;99.90
18218;DHT22;9234;49.344;11.120;2023-08-30T13:14:59;21.00;99.90
18218;DHT22;9234;49.344;11.120;2023-08-30T13:17:28;20.80;99.90
18218;DHT22;9234;49.344;11.120;2023-08-30T13:19:56;20.80;99.90
18218;DHT22;9234;49.344;11.120;2023-08-30T13:22:25;20.70;99.90
18218;DHT22;9234;49.344;11.120;2023-08-30T13:24:55;20.60;99.90
18218;DHT22;9234;49.344;11.120;2023-08-30T13:27:23;20.50;99.90
18218;DHT22;9234;49.344;11.120;2023-08-30T13:29:51;20.50;99.90
18218;DHT22;9234;49.344;11.120;2023-08-30T13:32:20;20.40;99.90
18218;DHT22;9234;49.344;11.120;2023-08-30T13:34:49;20.40;99.90
18218;DHT22;9234;49.344;11.120;2023-08-30T13:37:18;20.30;99.90
18218;DHT22;9234;49.344;11.120;2023-08-30T13:39:46;20.30;99.90
18218;DHT22;9234;49.344;11.120;2023-08-30T13:42:16;20.30;99.90
18218;DHT22;9234;49.344;11.120;2023-08-30T13:44:44;20.40;99.90
18218;DHT22;9234;49.344;11.120;2023-08-30T13:47:12;20.40;99.90
18218;DHT22;9234;49.344;11.120;2023-08-30T13:49:43;20.60;99.90
18218;DHT22;9234;49.344;11.120;2023-08-30T13:52:11;20.70;99.90
18218;DHT22;9234;49.344;11.120;2023-08-30T13:54:39;20.80;99.90
18218;DHT22;9234;49.344;11.120;2023-08-30T13:57:08;21.00;99.90
18218;DHT22;9234;49.344;11.120;2023-08-30T13:59:37;21.40;99.90
18218;DHT22;9234;49.344;11.120;2023-08-30T14:02:06;21.60;99.90
18218;DHT22;9234;49.344;11.120;2023-08-30T14:04:34;21.80;99.90
18218;DHT22;9234;49.344;11.120;2023-08-30T14:07:04;21.90;99.90
18218;DHT22;9234;49.344;11.120;2023-08-30T14:09:32;22.00;99.90
18218;DHT22;9234;49.344;11.120;2023-08-30T14:12:01;22.00;99.90
18218;DHT22;9234;49.344;11.120;2023-08-30T14:14:30;22.00;99.90
18218;DHT22;9234;49.344;11.120;2023-08-30T14:17:00;22.00;99.90
18218;DHT22;9234;49.344;11.120;2023-08-30T14:19:29;22.00;99.90
18218;DHT22;9234;49.344;11.120;2023-08-30T14:21:57;21.90;99.90
18218;DHT22;9234;49.344;11.120;2023-08-30T14:24:28;22.00;99.90
18218;DHT22;9234;49.344;11.120;2023-08-30T14:27:00;22.00;99.90
18218;DHT22;9234;49.344;11.120;2023-08-30T14:29:29;22.20;99.90
18218;DHT22;9234;49.344;11.120;2023-08-30T14:31:57;22.40;99.90
18218;DHT22;9234;49.344;11.120;2023-08-30T14:34:27;22.60;99.90
18218;DHT22;9234;49.344;11.120;2023-08-30T14:36:55;23.10;99.90
18218;DHT22;9234;49.344;11.120;2023-08-30T14:39:24;23.70;99.90
18218;DHT22;9234;49.344;11.120;2023-08-30T14:41:52;24.20;99.60
18218;DHT22;9234;49.344;11.120;2023-08-30T14:44:21;24.70;96.80
18218;DHT22;9234;49.344;11.120;2023-08-30T14:46:53;25.10;96.20
18218;DHT22;9234;49.344;11.120;2023-08-30T14:49:21;25.40;95.40
18218;DHT22;9234;49.344;11.120;2023-08-30T14:51:51;25.70;95.50
18218;DHT22;9234;49.344;11.120;2023-08-30T14:54:19;26.00;93.20
18218;DHT22;9234;49.344;11.120;2023-08-30T14:56:48;26.10;92.80
18218;DHT22;9234;49.344;11.120;2023-08-30T14:59:16;26.20;92.70
18218;DHT22;9234;49.344;11.120;2023-08-30T15:01:44;26.40;92.50
18218;DHT22;9234;49.344;11.120;2023-08-30T15:04:13;26.50;92.20
18218;DHT22;9234;49.344;11.120;2023-08-30T15:06:41;26.60;90.90
18218;DHT22;9234;49.344;11.120;2023-08-30T15:09:11;26.50;90.50
18218;DHT22;9234;49.344;11.120;2023-08-30T15:11:42;26.10;88.10
18218;DHT22;9234;49.344;11.120;2023-08-30T15:14:11;25.70;90.00
18218;DHT22;9234;49.344;11.120;2023-08-30T15:16:39;25.30;90.40
18218;DHT22;9234;49.344;11.120;2023-08-30T15:19:07;25.00;90.40
18218;DHT22;9234;49.344;11.120;2023-08-30T15:21:36;24.60;91.20
18218;DHT22;9234;49.344;11.120;2023-08-30T15:24:04;24.50;92.00
18218;DHT22;9234;49.344;11.120;2023-08-30T15:26:34;24.60;92.40
18218;DHT22;9234;49.344;11.120;2023-08-30T15:29:04;24.80;93.00
18218;DHT22;9234;49.344;11.120;2023-08-30T15:31:32;25.00;93.00
18218;DHT22;9234;49.344;11.120;2023-08-30T15:34:00;25.30;93.20
18218;DHT22;9234;49.344;11.120;2023-08-30T15:36:29;25.50;92.00
18218;DHT22;9234;49.344;11.120;2023-08-30T15:38:58;25.60;91.60
18218;DHT22;9234;49.344;11.120;2023-08-30T15:41:26;25.90;91.00
18218;DHT22;9234;49.344;11.120;2023-08-30T15:43:56;26.10;90.80
18218;DHT22;9234;49.344;11.120;2023-08-30T15:46:25;26.20;90.30